createdAt,value
2018-03-24T00:01:03.181Z,90.58
2018-03-24T00:03:31.433Z,90.26
2018-03-24T00:05:59.697Z,90.32
2018-03-24T00:08:27.953Z,89.92
2018-03-24T00:10:56.207Z,89.97
2018-03-24T00:13:24.454Z,89.84
2018-03-24T00:15:53.483Z,89.90
2018-03-24T00:18:21.737Z,89.92
2018-03-24T00:20:50.798Z,89.65
2018-03-24T00:23:19.049Z,89.28
2018-03-24T00:25:47.310Z,89.29
2018-03-24T00:28:15.558Z,89.26
2018-03-24T00:30:43.812Z,89.41
2018-03-24T00:33:12.830Z,89.44
2018-03-24T00:35:41.098Z,89.76
2018-03-24T00:38:10.109Z,89.58
2018-03-24T00:40:38.354Z,89.52
2018-03-24T00:43:07.380Z,89.75
2018-03-24T00:45:35.625Z,89.76
2018-03-24T00:48:04.647Z,89.83
2018-03-24T00:50:32.889Z,89.87
2018-03-24T00:53:01.910Z,90.24
2018-03-24T00:55:30.161Z,90.11
2018-03-24T00:57:59.181Z,90.20
2018-03-24T01:00:27.435Z,89.87
2018-03-24T01:02:56.465Z,89.68
2018-03-24T01:05:24.709Z,89.74
2018-03-24T01:07:52.970Z,89.77
2018-03-24T01:10:21.978Z,89.92
2018-03-24T01:12:50.229Z,89.47
2018-03-24T01:15:19.246Z,89.28
2018-03-24T01:17:47.502Z,89.54
2018-03-24T01:20:16.520Z,89.67
2018-03-24T01:22:44.798Z,89.78
2018-03-24T01:25:13.052Z,89.82
2018-03-24T01:27:42.070Z,89.76
2018-03-24T01:30:10.333Z,89.63
2018-03-24T01:32:38.589Z,89.93
2018-03-24T01:35:07.616Z,89.77
2018-03-24T01:37:35.865Z,89.49
2018-03-24T01:40:04.890Z,89.63
2018-03-24T01:42:33.138Z,90.08
2018-03-24T01:45:02.175Z,89.77
2018-03-24T01:47:30.430Z,89.61
2018-03-24T01:49:58.689Z,89.38
2018-03-24T01:52:26.942Z,89.37
2018-03-24T01:54:55.969Z,89.29
2018-03-24T01:57:24.225Z,89.27
2018-03-24T01:59:53.241Z,89.37
2018-03-24T02:02:21.494Z,89.05
2018-03-24T02:04:50.509Z,89.30
2018-03-24T02:07:18.762Z,89.20
2018-03-24T02:09:47.791Z,89.63
2018-03-24T02:12:16.038Z,89.54
2018-03-24T02:14:45.063Z,89.37
2018-03-24T02:17:13.322Z,89.59
2018-03-24T02:19:41.564Z,89.54
2018-03-24T02:22:10.590Z,89.72
2018-03-24T02:24:44.270Z,89.92
2018-03-24T02:27:13.297Z,89.75
2018-03-24T02:29:41.546Z,89.57
2018-03-24T02:32:10.572Z,89.58
2018-03-24T02:34:38.810Z,89.74
2018-03-24T02:37:07.839Z,89.51
2018-03-24T02:39:36.085Z,89.31
2018-03-24T02:42:05.102Z,89.63
2018-03-24T02:44:33.353Z,89.64
2018-03-24T02:47:01.625Z,89.69
2018-03-24T02:49:30.639Z,89.90
2018-03-24T02:51:58.900Z,90.13
2018-03-24T02:54:27.906Z,90.04
2018-03-24T02:56:56.166Z,89.91
2018-03-24T02:59:25.186Z,89.90
2018-03-24T03:01:53.449Z,89.67
2018-03-24T03:04:21.698Z,89.75
2018-03-24T03:06:49.981Z,89.65
2018-03-24T03:09:18.991Z,89.64
2018-03-24T03:11:47.243Z,89.88
2018-03-24T03:14:16.266Z,89.63
2018-03-24T03:16:44.517Z,90.23
2018-03-24T03:19:13.533Z,90.42
2018-03-24T03:21:53.685Z,90.44
2018-03-24T03:24:21.944Z,90.85
2018-03-24T03:26:50.958Z,90.84
2018-03-24T03:29:19.216Z,91.11
2018-03-24T03:34:47.746Z,91.36
2018-03-24T03:37:16.002Z,91.50
2018-03-24T03:39:44.256Z,91.73
2018-03-24T03:42:13.281Z,91.84
2018-03-24T03:44:41.534Z,92.14
2018-03-24T03:47:10.550Z,92.15
2018-03-24T03:49:38.810Z,92.14
2018-03-24T03:52:07.061Z,92.24
2018-03-24T03:54:36.085Z,92.31
2018-03-24T03:57:04.336Z,92.33
2018-03-24T03:59:33.354Z,92.62
2018-03-24T04:02:01.610Z,92.88
2018-03-24T04:04:30.625Z,93.21
2018-03-24T04:06:58.881Z,93.23
2018-03-24T04:09:27.902Z,93.19
2018-03-24T04:11:56.153Z,93.66
2018-03-24T04:14:25.197Z,93.86
2018-03-24T04:16:53.427Z,93.78
2018-03-24T04:19:21.677Z,93.77
2018-03-24T04:21:49.985Z,93.94
2018-03-24T04:24:19.005Z,94.04
2018-03-24T04:26:47.261Z,94.01
2018-03-24T04:29:15.498Z,94.18
2018-03-24T04:31:44.524Z,94.17
2018-03-24T04:34:12.777Z,94.13
2018-03-24T04:36:41.807Z,94.22
2018-03-24T04:39:10.053Z,94.14
2018-03-24T04:41:39.077Z,94.19
2018-03-24T04:44:07.337Z,94.27
2018-03-24T04:46:35.586Z,94.39
2018-03-24T04:49:04.598Z,94.41
2018-03-24T04:51:32.856Z,94.24
2018-03-24T04:54:01.879Z,94.24
2018-03-24T04:56:30.129Z,94.37
2018-03-24T04:58:59.146Z,94.36
2018-03-24T05:01:27.393Z,94.58
2018-03-24T05:03:56.442Z,94.63
2018-03-24T05:06:24.669Z,94.79
2018-03-24T05:08:53.686Z,94.65
2018-03-24T05:11:21.942Z,94.88
2018-03-24T05:13:50.962Z,94.99
2018-03-24T05:16:19.211Z,94.83
2018-03-24T05:18:48.226Z,94.80
2018-03-24T05:21:16.481Z,94.82
2018-03-24T05:23:45.497Z,94.88
2018-03-24T05:26:13.766Z,94.77
2018-03-24T05:28:42.770Z,94.68
2018-03-24T05:31:11.027Z,94.59
2018-03-24T05:33:39.281Z,94.46
2018-03-24T05:36:07.536Z,94.51
2018-03-24T05:38:35.785Z,94.37
2018-03-24T05:41:04.049Z,94.38
2018-03-24T05:43:32.298Z,94.41
2018-03-24T05:46:00.540Z,94.43
2018-03-24T05:48:28.822Z,94.62
2018-03-24T05:50:57.052Z,94.52
2018-03-24T05:53:25.302Z,94.29
2018-03-24T05:55:53.550Z,94.10
2018-03-24T05:58:21.811Z,94.07
2018-03-24T06:00:50.060Z,93.78
2018-03-24T06:03:18.316Z,93.87
2018-03-24T06:05:46.563Z,93.66
2018-03-24T06:08:15.596Z,93.77
2018-03-24T06:10:43.846Z,93.52
2018-03-24T06:13:12.105Z,93.34
2018-03-24T06:15:41.118Z,93.40
2018-03-24T06:18:09.373Z,93.05
2018-03-24T06:20:38.395Z,92.94
2018-03-24T06:23:06.646Z,92.90
2018-03-24T06:25:35.662Z,92.67
2018-03-24T06:28:03.917Z,92.75
2018-03-24T06:30:45.610Z,92.42
2018-03-24T06:33:14.633Z,92.29
2018-03-24T06:35:42.881Z,91.95
2018-03-24T06:38:11.902Z,91.57
2018-03-24T06:40:40.162Z,91.42
2018-03-24T06:43:08.422Z,91.32
2018-03-24T06:45:37.437Z,91.11
2018-03-24T06:48:05.697Z,91.30
2018-03-24T06:50:33.946Z,90.97
2018-03-24T06:53:02.206Z,90.47
2018-03-24T06:55:30.462Z,90.48
2018-03-24T06:57:58.724Z,90.06
2018-03-24T07:00:26.975Z,89.46
2018-03-24T07:02:55.232Z,89.44
2018-03-24T07:05:23.488Z,89.40
2018-03-24T07:07:51.738Z,89.13
2018-03-24T07:10:20.000Z,88.81
2018-03-24T07:12:48.245Z,88.65
2018-03-24T07:15:17.263Z,88.60
2018-03-24T07:17:45.512Z,88.05
2018-03-24T07:20:14.530Z,87.97
2018-03-24T07:22:42.782Z,87.22
2018-03-24T07:25:11.807Z,86.80
2018-03-24T07:27:40.057Z,86.98
2018-03-24T07:30:08.333Z,86.63
2018-03-24T07:32:37.340Z,86.23
2018-03-24T07:35:05.590Z,85.87
2018-03-24T07:37:34.597Z,85.47
2018-03-24T07:40:02.868Z,85.46
2018-03-24T07:42:31.877Z,85.20
2018-03-24T07:45:00.138Z,83.98
2018-03-24T07:47:28.387Z,83.66
2018-03-24T07:49:56.650Z,83.91
2018-03-24T07:52:24.899Z,83.41
2018-03-24T07:54:53.164Z,84.01
2018-03-24T07:57:21.409Z,83.32
2018-03-24T07:59:50.422Z,82.37
2018-03-24T08:02:18.681Z,82.07
2018-03-24T08:04:47.697Z,82.26
2018-03-24T08:07:15.952Z,81.98
2018-03-24T08:09:44.205Z,80.77
2018-03-24T08:12:13.227Z,81.36
2018-03-24T08:14:41.472Z,79.83
2018-03-24T08:17:10.497Z,79.64
2018-03-24T08:19:38.750Z,78.84
2018-03-24T08:22:07.779Z,78.06
2018-03-24T08:24:36.030Z,79.02
2018-03-24T08:27:05.047Z,78.14
2018-03-24T08:29:33.294Z,78.03
2018-03-24T08:32:02.319Z,76.60
2018-03-24T08:34:30.566Z,76.37
2018-03-24T08:36:59.580Z,77.09
2018-03-24T08:39:27.836Z,76.18
2018-03-24T08:41:56.845Z,75.82
2018-03-24T08:44:25.088Z,75.81
2018-03-24T08:46:53.338Z,76.48
2018-03-24T08:49:21.581Z,75.09
2018-03-24T08:51:49.834Z,74.61
2018-03-24T08:54:18.846Z,73.65
2018-03-24T08:56:47.109Z,73.86
2018-03-24T08:59:16.115Z,72.67
2018-03-24T09:01:44.376Z,72.16
2018-03-24T09:04:13.382Z,71.55
2018-03-24T09:06:41.646Z,70.81
2018-03-24T09:09:09.894Z,71.04
2018-03-24T09:11:38.139Z,71.95
2018-03-24T09:14:06.396Z,71.58
2018-03-24T09:16:34.642Z,71.51
2018-03-24T09:19:03.664Z,71.90
2018-03-24T09:21:31.902Z,71.54
2018-03-24T09:24:00.917Z,71.79
2018-03-24T09:26:29.162Z,70.60
2018-03-24T09:28:58.183Z,71.12
2018-03-24T09:31:26.422Z,72.60
2018-03-24T09:33:54.675Z,70.77
2018-03-24T09:36:22.913Z,68.90
2018-03-24T09:38:51.166Z,67.88
2018-03-24T09:41:20.186Z,68.09
2018-03-24T09:43:48.441Z,65.93
2018-03-24T09:46:17.449Z,64.64
2018-03-24T09:48:45.690Z,65.16
2018-03-24T09:51:13.929Z,63.29
2018-03-24T09:53:42.178Z,62.55
2018-03-24T09:56:10.426Z,60.81
2018-03-24T09:58:39.442Z,61.38
2018-03-24T10:01:07.690Z,61.76
2018-03-24T10:03:36.726Z,61.31
2018-03-24T10:06:04.956Z,62.10
2018-03-24T10:08:33.977Z,57.16
2018-03-24T10:11:02.285Z,58.11
2018-03-24T10:13:31.242Z,58.43
2018-03-24T10:16:00.249Z,58.79
2018-03-24T10:18:28.494Z,58.67
2018-03-24T10:24:27.637Z,56.89
2018-03-24T10:26:55.881Z,56.10
2018-03-24T10:29:24.906Z,56.12
2018-03-24T10:31:53.153Z,55.13
2018-03-24T10:34:22.171Z,52.90
2018-03-24T10:36:50.413Z,51.98
2018-03-24T10:39:19.428Z,52.66
2018-03-24T10:41:48.448Z,52.52
2018-03-24T10:44:16.685Z,51.79
2018-03-24T10:46:45.708Z,50.68
2018-03-24T10:49:13.955Z,50.76
2018-03-24T10:51:42.973Z,49.90
2018-03-24T10:54:11.214Z,49.01
2018-03-24T10:56:40.246Z,50.64
2018-03-24T10:59:08.499Z,50.27
2018-03-24T11:01:38.250Z,50.35
2018-03-24T11:04:06.508Z,48.17
2018-03-24T11:06:34.754Z,48.65
2018-03-24T11:09:03.874Z,47.55
2018-03-24T11:11:32.156Z,49.35
2018-03-24T11:14:00.436Z,50.49
2018-03-24T11:16:28.690Z,49.70
2018-03-24T11:18:56.955Z,43.44
2018-03-24T11:21:25.979Z,46.74
2018-03-24T11:23:54.271Z,46.69
2018-03-24T11:26:22.529Z,46.41
2018-03-24T11:28:50.799Z,43.09
2018-03-24T11:31:19.053Z,40.44
2018-03-24T11:33:48.074Z,38.82
2018-03-24T11:36:16.316Z,39.27
2018-03-24T11:38:45.331Z,40.96
2018-03-24T11:41:13.568Z,40.76
2018-03-24T11:43:41.815Z,40.72
2018-03-24T11:46:10.062Z,38.60
2018-03-24T11:48:38.318Z,40.87
2018-03-24T11:51:07.336Z,39.10
2018-03-24T11:53:47.350Z,40.05
2018-03-24T11:56:15.638Z,41.25
2018-03-24T11:58:43.857Z,41.28
2018-03-24T12:01:12.100Z,40.06
2018-03-24T12:03:40.361Z,39.58
2018-03-24T12:06:09.377Z,42.70
2018-03-24T12:08:37.629Z,39.08
2018-03-24T12:11:06.647Z,42.60
2018-03-24T12:13:34.901Z,43.27
2018-03-24T12:16:03.905Z,44.00
2018-03-24T12:18:32.165Z,45.22
2018-03-24T12:21:01.174Z,45.78
2018-03-24T12:23:29.419Z,46.52
2018-03-24T12:25:57.665Z,47.91
2018-03-24T12:28:25.917Z,47.33
2018-03-24T12:30:54.164Z,46.22
2018-03-24T12:33:23.172Z,46.31
2018-03-24T12:35:51.502Z,45.74
2018-03-24T12:38:19.753Z,42.34
2018-03-24T12:40:47.999Z,45.51
2018-03-24T12:43:16.244Z,48.30
2018-03-24T12:45:44.493Z,48.41
2018-03-24T12:48:12.743Z,48.51
2018-03-24T12:50:40.987Z,48.00
2018-03-24T12:53:10.003Z,47.95
2018-03-24T12:55:38.251Z,45.22
2018-03-24T12:58:07.261Z,43.85
2018-03-24T13:00:35.514Z,45.06
2018-03-24T13:03:04.524Z,45.20
2018-03-24T13:05:32.783Z,46.06
2018-03-24T13:08:01.789Z,46.61
2018-03-24T13:10:30.043Z,46.33
2018-03-24T13:12:58.295Z,46.26
2018-03-24T13:15:26.554Z,45.10
2018-03-24T13:17:54.797Z,43.01
2018-03-24T13:20:23.093Z,38.62
2018-03-24T13:22:51.337Z,40.64
2018-03-24T13:25:20.360Z,41.96
2018-03-24T13:27:48.675Z,45.51
2018-03-24T13:30:16.923Z,45.50
2018-03-24T13:32:45.174Z,44.66
2018-03-24T13:35:13.424Z,44.34
2018-03-24T13:37:42.452Z,41.19
2018-03-24T13:40:10.691Z,45.81
2018-03-24T13:42:39.709Z,47.23
2018-03-24T13:45:07.950Z,47.25
2018-03-24T13:47:36.198Z,46.57
2018-03-24T13:50:04.440Z,47.84
2018-03-24T13:52:32.691Z,47.61
2018-03-24T13:55:01.715Z,46.12
2018-03-24T13:57:29.973Z,46.06
2018-03-24T13:59:58.212Z,46.58
2018-03-24T14:02:26.464Z,45.74
2018-03-24T14:04:54.707Z,44.85
2018-03-24T14:07:22.958Z,44.28
2018-03-24T14:09:51.974Z,44.03
2018-03-24T14:12:20.226Z,43.26
2018-03-24T14:14:49.238Z,44.76
2018-03-24T14:17:17.493Z,40.86
2018-03-24T14:19:46.505Z,42.34
2018-03-24T14:22:14.766Z,41.93
2018-03-24T14:24:43.777Z,42.24
2018-03-24T14:27:12.058Z,43.08
2018-03-24T14:29:40.306Z,42.59
2018-03-24T14:32:09.326Z,43.42
2018-03-24T14:34:37.589Z,44.60
2018-03-24T14:37:06.593Z,44.61
2018-03-24T14:39:34.846Z,44.57
2018-03-24T14:42:03.861Z,44.50
2018-03-24T14:44:32.114Z,41.81
2018-03-24T14:47:01.130Z,42.04
2018-03-24T14:49:29.385Z,42.53
2018-03-24T14:51:58.389Z,44.52
2018-03-24T14:54:26.663Z,43.75
2018-03-24T14:56:55.662Z,41.86
2018-03-24T14:59:23.922Z,40.00
2018-03-24T15:01:52.937Z,39.62
2018-03-24T15:04:21.196Z,38.23
2018-03-24T15:06:50.209Z,37.23
2018-03-24T15:09:18.471Z,36.70
2018-03-24T15:11:46.718Z,38.46
2018-03-24T15:14:14.974Z,37.91
2018-03-24T15:16:43.227Z,36.49
2018-03-24T15:19:11.490Z,34.75
2018-03-24T15:21:39.736Z,35.26
2018-03-24T15:24:09.019Z,34.68
2018-03-24T15:26:37.270Z,35.38
2018-03-24T15:29:23.266Z,35.51
2018-03-24T15:32:09.270Z,38.78
2018-03-24T15:34:55.401Z,41.76
2018-03-24T15:37:23.649Z,42.57
2018-03-24T15:39:52.674Z,38.24
2018-03-24T15:42:20.916Z,37.85
2018-03-24T15:44:49.943Z,40.64
2018-03-24T15:47:18.194Z,42.97
2018-03-24T15:49:47.216Z,40.99
2018-03-24T15:52:15.461Z,38.39
2018-03-24T15:54:44.492Z,37.43
2018-03-24T15:57:12.736Z,39.11
2018-03-24T15:59:41.759Z,42.07
2018-03-24T16:02:10.006Z,43.70
2018-03-24T16:04:39.021Z,42.12
2018-03-24T16:07:07.273Z,41.95
2018-03-24T16:09:36.293Z,42.92
2018-03-24T16:12:04.545Z,40.47
2018-03-24T16:14:33.563Z,41.11
2018-03-24T16:17:01.813Z,41.61
2018-03-24T16:19:30.834Z,40.85
2018-03-24T16:21:59.089Z,42.04
2018-03-24T16:24:28.102Z,41.31
2018-03-24T16:26:56.362Z,39.35
2018-03-24T16:29:25.375Z,41.73
2018-03-24T16:31:53.642Z,41.92
2018-03-24T16:34:21.898Z,44.52
2018-03-24T16:36:50.914Z,46.33
2018-03-24T16:39:19.177Z,45.32
2018-03-24T16:41:48.177Z,45.52
2018-03-24T16:44:16.422Z,46.26
2018-03-24T16:46:45.438Z,46.37
2018-03-24T16:49:13.687Z,46.65
2018-03-24T16:51:41.968Z,46.93
2018-03-24T16:54:10.974Z,47.61
2018-03-24T16:56:39.982Z,47.40
2018-03-24T16:59:08.229Z,48.05
2018-03-24T17:01:37.238Z,47.97
2018-03-24T17:04:05.486Z,48.35
2018-03-24T17:06:33.729Z,48.74
2018-03-24T17:09:01.990Z,48.63
2018-03-24T17:11:30.231Z,48.92
2018-03-24T17:13:59.253Z,49.88
2018-03-24T17:16:27.493Z,50.06
2018-03-24T17:18:55.739Z,49.53
2018-03-24T17:21:23.979Z,50.44
2018-03-24T17:23:52.221Z,50.56
2018-03-24T17:26:21.237Z,50.96
2018-03-24T17:28:49.484Z,51.19
2018-03-24T17:31:18.500Z,51.52
2018-03-24T17:33:46.745Z,51.70
2018-03-24T17:36:15.001Z,52.01
2018-03-24T17:38:43.272Z,52.31
2018-03-24T17:41:11.514Z,52.93
2018-03-24T17:43:39.773Z,52.98
2018-03-24T17:46:08.020Z,53.43
2018-03-24T17:48:36.277Z,54.08
2018-03-24T17:51:04.518Z,54.34
2018-03-24T17:53:32.754Z,54.62
2018-03-24T17:56:01.853Z,54.56
2018-03-24T17:58:30.862Z,54.76
2018-03-24T18:00:59.106Z,55.19
2018-03-24T18:03:27.353Z,55.47
2018-03-24T18:05:55.601Z,55.33
2018-03-24T18:08:23.848Z,55.56
2018-03-24T18:10:52.869Z,55.77
2018-03-24T18:13:21.148Z,56.23
2018-03-24T18:15:50.134Z,56.35
2018-03-24T18:18:18.372Z,57.44
2018-03-24T18:20:46.629Z,56.59
2018-03-24T18:23:14.880Z,56.53
2018-03-24T18:25:43.129Z,56.61
2018-03-24T18:28:11.389Z,56.87
2018-03-24T18:30:39.631Z,57.28
2018-03-24T18:33:07.874Z,57.28
2018-03-24T18:35:36.128Z,57.48
2018-03-24T18:38:04.375Z,57.66
2018-03-24T18:40:32.629Z,57.84
2018-03-24T18:43:00.875Z,57.72
2018-03-24T18:45:29.124Z,58.21
2018-03-24T18:47:58.138Z,58.30
2018-03-24T18:50:26.386Z,58.92
2018-03-24T18:52:55.402Z,59.40
2018-03-24T18:55:23.641Z,59.91
2018-03-24T18:57:52.661Z,59.95
2018-03-24T19:00:20.949Z,60.73
2018-03-24T19:02:49.938Z,61.27
2018-03-24T19:05:18.190Z,61.64
2018-03-24T19:07:47.206Z,62.80
2018-03-24T19:10:15.462Z,61.87
2018-03-24T19:12:44.479Z,60.85
2018-03-24T19:15:12.722Z,60.47
2018-03-24T19:17:41.740Z,59.92
2018-03-24T19:20:10.020Z,59.50
2018-03-24T19:22:38.280Z,58.85
2018-03-24T19:25:07.296Z,59.25
2018-03-24T19:27:35.546Z,58.97
2018-03-24T19:30:04.563Z,58.79
2018-03-24T19:32:32.822Z,58.47
2018-03-24T19:35:01.082Z,58.38
2018-03-24T19:37:29.353Z,58.75
2018-03-24T19:39:57.586Z,59.23
2018-03-24T19:42:25.825Z,60.03
2018-03-24T19:44:54.082Z,60.67
2018-03-24T19:47:23.093Z,61.11
2018-03-24T19:49:51.342Z,61.48
2018-03-24T19:52:20.703Z,61.73
2018-03-24T19:54:48.958Z,61.80
2018-03-24T19:57:17.201Z,62.00
2018-03-24T19:59:46.221Z,61.87
2018-03-24T20:02:14.472Z,61.63
2018-03-24T20:04:43.503Z,62.10
2018-03-24T20:07:11.742Z,62.94
2018-03-24T20:09:40.766Z,64.51
2018-03-24T20:12:09.081Z,65.40
2018-03-24T20:14:37.277Z,65.85
2018-03-24T20:17:05.526Z,66.47
2018-03-24T20:19:33.777Z,66.88
2018-03-24T20:22:02.022Z,67.58
2018-03-24T20:24:30.278Z,67.84
2018-03-24T20:26:58.525Z,68.11
2018-03-24T20:29:26.785Z,67.89
2018-03-24T20:31:55.036Z,67.37
2018-03-24T20:34:23.301Z,67.28
2018-03-24T20:36:51.556Z,67.42
2018-03-24T20:39:19.794Z,67.59
2018-03-24T20:41:48.054Z,67.40
2018-03-24T20:44:16.300Z,67.41
2018-03-24T20:46:44.560Z,67.16
2018-03-24T20:49:12.803Z,67.47
2018-03-24T20:51:41.062Z,67.80
2018-03-24T20:54:09.312Z,68.24
2018-03-24T20:56:38.287Z,69.16
2018-03-24T20:59:06.591Z,69.31
2018-03-24T21:01:34.846Z,69.30
2018-03-24T21:04:03.998Z,68.99
2018-03-24T21:06:32.347Z,68.47
2018-03-24T21:09:00.620Z,68.26
2018-03-24T21:11:28.874Z,68.70
2018-03-24T21:13:57.126Z,69.41
2018-03-24T21:16:26.150Z,69.88
2018-03-24T21:18:54.401Z,70.60
2018-03-24T21:21:23.436Z,70.98
2018-03-24T21:23:51.699Z,71.66
2018-03-24T21:26:19.974Z,71.79
2018-03-24T21:28:48.226Z,71.83
2018-03-24T21:31:17.246Z,71.58
2018-03-24T21:33:45.503Z,71.76
2018-03-24T21:36:14.526Z,71.96
2018-03-24T21:38:42.782Z,72.00
2018-03-24T21:41:11.795Z,71.91
2018-03-24T21:43:40.058Z,72.11
2018-03-24T21:46:08.310Z,72.31
2018-03-24T21:48:37.338Z,72.40
2018-03-24T21:51:05.594Z,72.12
2018-03-24T21:53:33.859Z,71.99
2018-03-24T21:56:03.157Z,71.46
2018-03-24T21:58:32.182Z,70.71
2018-03-24T22:01:05.735Z,70.52
2018-03-24T22:03:30.491Z,70.28
2018-03-24T22:05:58.733Z,69.73
2018-03-24T22:08:27.763Z,69.47
2018-03-24T22:10:56.014Z,69.35
2018-03-24T22:13:24.266Z,69.16
2018-03-24T22:15:53.280Z,69.45
2018-03-24T22:18:21.546Z,69.66
2018-03-24T22:20:50.563Z,69.82
2018-03-24T22:23:18.821Z,69.74
2018-03-24T22:25:47.878Z,69.79
2018-03-24T22:28:16.129Z,69.66
2018-03-24T22:30:44.386Z,69.81
2018-03-24T22:33:12.650Z,69.65
2018-03-24T22:35:41.664Z,69.80
2018-03-24T22:38:10.035Z,69.80
2018-03-24T22:40:38.282Z,69.90
2018-03-24T22:43:07.357Z,70.02
2018-03-24T22:45:35.548Z,69.56
2018-03-24T22:48:04.601Z,69.98
2018-03-24T22:50:32.849Z,69.57
2018-03-24T22:53:01.117Z,70.04
2018-03-24T22:55:29.418Z,70.09
2018-03-24T22:57:57.753Z,70.26
2018-03-24T23:00:26.765Z,70.38
2018-03-24T23:02:55.013Z,70.86
2018-03-24T23:05:24.149Z,71.11
2018-03-24T23:07:52.391Z,71.89
2018-03-24T23:10:21.422Z,72.45
2018-03-24T23:12:49.667Z,73.07
2018-03-24T23:15:18.686Z,73.16
2018-03-24T23:17:46.932Z,73.40
2018-03-24T23:20:15.954Z,73.59
2018-03-24T23:22:44.243Z,73.71
2018-03-24T23:25:12.498Z,73.72
2018-03-24T23:27:40.751Z,73.87
2018-03-24T23:30:09.793Z,73.74
2018-03-24T23:32:38.153Z,73.61
2018-03-24T23:35:06.438Z,73.86
2018-03-24T23:37:34.692Z,73.93
2018-03-24T23:40:02.944Z,74.05
2018-03-24T23:42:32.050Z,73.94
2018-03-24T23:45:01.161Z,73.68
2018-03-24T23:47:29.431Z,73.76
2018-03-24T23:49:57.685Z,73.50
2018-03-24T23:52:26.696Z,73.68
2018-03-24T23:54:54.969Z,73.77
2018-03-24T23:57:23.988Z,73.90
2018-03-24T23:59:52.230Z,73.86
